Terminal Aerodrome Forecast
Issued by NWS

Home | Current Version | Previous Version | Graphics & Text | Print | Product List | Glossary On
Versions: 1 2 3 4 5 6 7 8 9 10 11 12 13 14 15 16 17 18
000
FTUS43 KGRB 171100
TAFATW
TAF
KATW 171136Z 1712/1812 30012G18KT P6SM -SN BKN025 BKN040
     FM180000 33007KT P6SM BKN030
     FM180800 34006KT P6SM SCT030=

USA.gov is the U.S. government's official web portal to all federal, state and local government web resources and services.